Time;durP1;ratioP1;P1;durP2;ratioP2;P2;SDS_P1;SDS_P2;PMS_P1;PMS_P2;Temp;Humidity;BMP_temperature;BMP_pressure;BME280_temperature;BME280_humidity;BME280_pressure;Samples;Min_cycle;Max_cycle;Signal;HPM_P1;HPM_P2
2021/04/10 00:02:03;;;;;;;18.33;3.53;;;3.00;99.90;;;;;;5013093;28;20029;-66
2021/04/10 00:04:29;;;;;;;10.88;1.40;;;3.00;99.90;;;;;;5017388;28;20037;-65
2021/04/10 00:06:55;;;;;;;7.85;1.63;;;3.10;99.90;;;;;;5015369;28;20629;-65
2021/04/10 00:09:21;;;;;;;13.90;1.80;;;3.10;99.90;;;;;;5018151;28;20531;-65
2021/04/10 00:11:47;;;;;;;3.90;1.17;;;3.20;99.90;;;;;;5016761;28;20619;-64
2021/04/10 00:14:14;;;;;;;5.38;1.00;;;3.10;99.90;;;;;;5016591;28;20311;-64
2021/04/10 00:16:40;;;;;;;5.60;1.00;;;3.00;99.90;;;;;;5018683;28;20037;-65
2021/04/10 00:19:06;;;;;;;4.88;0.85;;;2.90;99.90;;;;;;5019148;28;20456;-64
2021/04/10 00:21:32;;;;;;;9.65;1.23;;;2.80;99.90;;;;;;5019835;28;20286;-65
2021/04/10 00:23:58;;;;;;;7.07;1.10;;;2.80;99.90;;;;;;5018845;28;20033;-67
2021/04/10 00:26:24;;;;;;;7.03;2.33;;;2.70;99.90;;;;;;5013753;28;20041;-66
2021/04/10 00:28:50;;;;;;;8.10;1.30;;;2.60;99.90;;;;;;5019403;28;20038;-67
2021/04/10 00:31:16;;;;;;;7.78;1.63;;;2.60;99.90;;;;;;5016115;28;20448;-67
2021/04/10 00:33:42;;;;;;;7.63;1.52;;;2.60;99.90;;;;;;5018084;28;20045;-68
2021/04/10 00:36:09;;;;;;;7.72;1.83;;;2.50;99.90;;;;;;5013994;28;20061;-66
2021/04/10 00:38:36;;;;;;;3.90;1.00;;;2.50;99.90;;;;;;5016000;28;20041;-65
2021/04/10 00:41:05;;;;;;;5.55;0.90;;;2.50;99.90;;;;;;5016017;28;20068;-65
2021/04/10 00:43:31;;;;;;;4.43;1.08;;;2.50;99.90;;;;;;5012288;28;20086;-65
2021/04/10 00:45:57;;;;;;;5.72;0.98;;;2.50;99.90;;;;;;5016377;28;20033;-65
2021/04/10 00:48:23;;;;;;;6.68;1.20;;;2.50;99.90;;;;;;5014041;28;20457;-65
2021/04/10 00:50:50;;;;;;;11.35;1.80;;;2.50;99.90;;;;;;5015979;28;20025;-65
2021/04/10 00:53:18;;;;;;;7.20;1.15;;;2.50;99.90;;;;;;5016226;28;20034;-65
2021/04/10 00:55:47;;;;;;;9.88;2.50;;;2.40;99.90;;;;;;5016168;28;20460;-65
2021/04/10 00:58:13;;;;;;;12.38;1.65;;;2.40;99.90;;;;;;5014111;28;20029;-65
2021/04/10 01:00:39;;;;;;;8.05;1.30;;;2.40;99.90;;;;;;5015957;28;20032;-64
2021/04/10 01:03:05;;;;;;;10.23;1.40;;;2.40;99.90;;;;;;5014351;28;20466;-64
2021/04/10 01:05:31;;;;;;;8.88;1.48;;;2.50;99.90;;;;;;5014008;28;20369;-64
2021/04/10 01:07:58;;;;;;;9.38;2.10;;;2.50;99.90;;;;;;5012687;28;20083;-65
2021/04/10 01:10:24;;;;;;;9.95;1.70;;;2.50;99.90;;;;;;5016354;28;20334;-64
2021/04/10 01:13:13;;;;;;;8.52;1.50;;;2.50;99.90;;;;;;5015381;28;20099;-65
2021/04/10 01:15:57;;;;;;;6.53;1.10;;;2.50;99.90;;;;;;5010658;28;20072;-64
2021/04/10 01:19:00;;;;;;;3.60;1.10;;;2.50;99.90;;;;;;5013786;28;20474;-66
2021/04/10 01:21:31;;;;;;;9.25;2.22;;;2.60;99.90;;;;;;5012323;28;20546;-65
2021/04/10 01:24:39;;;;;;;9.90;1.70;;;2.70;99.90;;;;;;5015624;28;20115;-65
2021/04/10 01:27:08;;;;;;;9.38;2.08;;;2.70;99.90;;;;;;5017858;28;20828;-65
2021/04/10 01:29:49;;;;;;;8.88;1.73;;;2.80;99.90;;;;;;5014590;28;20432;-65
2021/04/10 01:32:16;;;;;;;7.90;2.00;;;2.80;99.90;;;;;;5014749;28;20033;-64
2021/04/10 01:34:53;;;;;;;10.10;1.83;;;2.90;99.90;;;;;;5014189;28;20902;-65
2021/04/10 01:37:27;;;;;;;14.50;2.72;;;3.00;99.90;;;;;;5013958;28;20045;-65
2021/04/10 01:39:53;;;;;;;5.30;1.35;;;3.00;99.90;;;;;;5017105;28;20038;-66
2021/04/10 01:42:22;;;;;;;12.75;1.80;;;3.00;99.90;;;;;;5014488;28;20140;-64
2021/04/10 01:44:49;;;;;;;7.18;1.52;;;3.10;99.90;;;;;;5018083;28;20037;-65
2021/04/10 01:47:16;;;;;;;7.97;1.35;;;3.10;99.90;;;;;;5014622;28;20553;-64
2021/04/10 01:49:43;;;;;;;6.13;1.40;;;3.10;99.90;;;;;;5018438;28;20039;-65
2021/04/10 01:52:11;;;;;;;6.75;1.33;;;3.10;99.90;;;;;;5017387;28;20026;-65
2021/04/10 01:54:39;;;;;;;10.40;1.38;;;3.10;99.90;;;;;;5019102;28;20111;-65
2021/04/10 01:57:06;;;;;;;12.63;2.10;;;3.10;99.90;;;;;;5008538;28;20033;-65
2021/04/10 01:59:34;;;;;;;8.90;1.20;;;3.20;99.90;;;;;;5018473;28;20033;-65
2021/04/10 02:02:01;;;;;;;7.10;1.30;;;3.10;99.90;;;;;;5019152;28;20179;-65
2021/04/10 02:04:29;;;;;;;10.70;1.27;;;3.10;99.90;;;;;;5022415;28;20022;-64
2021/04/10 02:06:56;;;;;;;7.28;1.42;;;3.10;99.90;;;;;;5017837;28;20037;-65
2021/04/10 02:09:24;;;;;;;8.93;1.45;;;3.10;99.90;;;;;;5020275;28;20025;-64
2021/04/10 02:11:51;;;;;;;7.80;0.95;;;3.10;99.90;;;;;;5021703;28;20037;-65
2021/04/10 02:14:20;;;;;;;12.05;1.95;;;3.10;99.90;;;;;;5018590;28;20389;-64
2021/04/10 02:16:46;;;;;;;7.57;1.27;;;3.10;99.90;;;;;;5017058;28;20033;-65
2021/04/10 02:19:13;;;;;;;8.90;1.30;;;3.20;99.90;;;;;;5018567;28;20475;-64
2021/04/10 02:21:39;;;;;;;17.27;1.65;;;3.20;99.90;;;;;;5016989;28;20041;-65
2021/04/10 02:24:08;;;;;;;8.65;1.17;;;3.30;99.90;;;;;;5018121;28;20125;-64
2021/04/10 02:26:33;;;;;;;8.07;1.30;;;3.30;99.90;;;;;;5016435;28;20049;-64
2021/04/10 02:29:00;;;;;;;9.43;1.55;;;3.30;99.90;;;;;;5015866;28;20053;-64
2021/04/10 02:31:40;;;;;;;6.43;1.17;;;3.20;99.90;;;;;;5014503;28;20029;-64
2021/04/10 02:34:16;;;;;;;16.02;1.80;;;3.20;99.90;;;;;;5018050;28;20041;-65
2021/04/10 02:36:44;;;;;;;8.90;2.08;;;3.20;99.90;;;;;;5015400;28;20049;-64
2021/04/10 02:39:10;;;;;;;10.38;1.67;;;3.20;99.90;;;;;;5021647;28;20070;-65
2021/04/10 02:41:39;;;;;;;7.03;1.65;;;3.20;99.90;;;;;;5019325;28;20057;-64
2021/04/10 02:44:08;;;;;;;16.03;1.53;;;3.10;99.90;;;;;;5017443;28;20034;-65
2021/04/10 02:46:47;;;;;;;7.85;1.40;;;3.10;99.90;;;;;;5018188;28;20150;-64
2021/04/10 02:49:25;;;;;;;12.52;2.50;;;3.10;99.90;;;;;;5020181;28;20096;-65
2021/04/10 02:51:57;;;;;;;6.57;1.25;;;3.10;99.90;;;;;;5011681;28;20112;-65
2021/04/10 02:54:28;;;;;;;11.65;1.63;;;3.10;99.90;;;;;;5020514;28;20095;-64
2021/04/10 02:57:02;;;;;;;17.38;2.22;;;3.10;99.90;;;;;;5018778;28;20037;-65
2021/04/10 02:59:29;;;;;;;9.55;1.70;;;3.10;99.90;;;;;;5017617;28;20018;-65
2021/04/10 03:01:57;;;;;;;7.15;1.45;;;3.10;99.90;;;;;;5017104;28;20045;-65
2021/04/10 03:04:23;;;;;;;16.10;2.95;;;3.10;99.90;;;;;;5019326;28;20045;-64
2021/04/10 03:06:50;;;;;;;10.82;1.67;;;3.10;99.90;;;;;;5019968;28;20123;-64
2021/04/10 03:09:16;;;;;;;14.70;2.10;;;3.00;99.90;;;;;;5002389;28;20750;-65
2021/04/10 03:11:43;;;;;;;8.43;1.77;;;3.00;99.90;;;;;;5016661;28;20025;-65
2021/04/10 03:14:09;;;;;;;17.40;1.85;;;3.00;99.90;;;;;;5017675;28;20022;-65
2021/04/10 03:16:37;;;;;;;10.35;1.55;;;3.00;99.90;;;;;;5020276;28;20115;-65
2021/04/10 03:19:06;;;;;;;9.13;2.03;;;3.00;99.90;;;;;;5019649;28;20088;-67
2021/04/10 03:21:32;;;;;;;14.02;1.77;;;3.00;99.90;;;;;;5017363;28;20060;-64
2021/04/10 03:23:58;;;;;;;12.98;3.47;;;3.10;99.90;;;;;;5020288;28;20040;-64
2021/04/10 03:26:24;;;;;;;12.80;1.77;;;3.10;99.90;;;;;;5018212;28;20056;-64
2021/04/10 03:28:52;;;;;;;18.58;2.00;;;3.10;99.90;;;;;;5017438;28;20026;-64
2021/04/10 03:31:18;;;;;;;15.25;2.13;;;3.20;99.90;;;;;;5016749;28;20033;-64
2021/04/10 03:33:44;;;;;;;17.48;1.85;;;3.20;99.90;;;;;;5014295;28;20037;-64
2021/04/10 03:36:12;;;;;;;12.40;2.58;;;3.20;99.90;;;;;;5019281;28;20038;-64
2021/04/10 03:38:40;;;;;;;15.02;2.13;;;3.20;99.90;;;;;;5015680;28;20040;-65
2021/04/10 03:41:07;;;;;;;21.48;3.30;;;3.20;99.90;;;;;;5019285;28;20200;-65
2021/04/10 03:43:34;;;;;;;8.55;1.90;;;3.20;99.90;;;;;;5013451;28;20030;-64
2021/04/10 03:46:01;;;;;;;11.65;2.33;;;3.10;99.90;;;;;;5016010;28;20457;-65
2021/04/10 03:48:29;;;;;;;7.57;2.00;;;3.10;99.90;;;;;;5018245;28;20453;-64
2021/04/10 03:50:55;;;;;;;7.20;1.63;;;3.20;99.90;;;;;;5015809;28;20487;-64
2021/04/10 03:53:21;;;;;;;9.73;1.63;;;3.10;99.90;;;;;;5015815;28;20040;-64
2021/04/10 03:55:47;;;;;;;7.10;1.27;;;3.10;99.90;;;;;;5016606;28;20448;-64
2021/04/10 03:58:13;;;;;;;7.60;1.40;;;3.10;99.90;;;;;;5015956;28;20108;-65
2021/04/10 04:00:38;;;;;;;11.00;1.52;;;3.10;99.90;;;;;;5015059;28;20033;-65
2021/04/10 04:03:04;;;;;;;4.85;1.30;;;3.10;99.90;;;;;;5017012;28;20124;-65
2021/04/10 04:05:30;;;;;;;11.63;2.40;;;3.10;99.90;;;;;;5014889;28;20033;-65
2021/04/10 04:07:56;;;;;;;9.88;1.25;;;3.10;99.90;;;;;;5015861;28;20030;-65
2021/04/10 04:10:22;;;;;;;4.72;1.08;;;3.10;99.90;;;;;;5016489;28;20578;-64
2021/04/10 04:12:48;;;;;;;6.03;1.27;;;3.00;99.90;;;;;;5012897;28;20498;-65
2021/04/10 04:15:14;;;;;;;8.70;1.75;;;3.00;99.90;;;;;;5016835;28;20351;-64
2021/04/10 04:17:39;;;;;;;7.95;1.40;;;3.00;99.90;;;;;;5016044;28;20258;-65
2021/04/10 04:20:06;;;;;;;13.55;1.73;;;3.00;99.90;;;;;;5013782;28;20037;-64
2021/04/10 04:22:32;;;;;;;9.88;1.20;;;3.00;99.90;;;;;;5014309;28;20080;-65
2021/04/10 04:24:58;;;;;;;11.48;1.50;;;3.10;99.90;;;;;;5014160;28;20540;-64
2021/04/10 04:27:24;;;;;;;7.07;1.05;;;3.00;99.90;;;;;;5013002;28;20252;-65
2021/04/10 04:29:52;;;;;;;5.38;1.20;;;3.10;99.90;;;;;;5012899;28;20033;-64
2021/04/10 04:32:20;;;;;;;11.50;1.67;;;3.10;99.90;;;;;;5012034;28;20030;-65
2021/04/10 04:34:46;;;;;;;12.02;1.40;;;3.10;99.90;;;;;;5016833;28;20103;-65
2021/04/10 04:37:12;;;;;;;10.65;1.13;;;3.00;99.90;;;;;;5014547;28;20045;-65
2021/04/10 04:39:38;;;;;;;8.32;1.40;;;3.10;99.90;;;;;;5015742;28;20060;-64
2021/04/10 04:42:04;;;;;;;5.60;1.33;;;3.00;99.90;;;;;;5018138;28;20515;-65
2021/04/10 04:44:29;;;;;;;14.95;1.75;;;3.00;99.90;;;;;;5009379;28;20025;-64
2021/04/10 04:46:55;;;;;;;9.68;1.42;;;3.10;99.90;;;;;;5009579;28;20043;-65
2021/04/10 04:49:21;;;;;;;11.68;1.52;;;3.10;99.90;;;;;;5004791;28;20479;-65
2021/04/10 04:51:47;;;;;;;10.02;1.50;;;3.10;99.90;;;;;;5012452;28;20064;-64
2021/04/10 04:54:13;;;;;;;12.35;2.30;;;3.20;99.90;;;;;;5012510;28;20022;-65
2021/04/10 04:56:39;;;;;;;10.00;1.52;;;3.20;99.90;;;;;;5016322;28;20041;-65
2021/04/10 04:59:05;;;;;;;11.15;1.60;;;3.30;99.90;;;;;;5016251;28;20033;-65
2021/04/10 05:01:31;;;;;;;9.82;1.35;;;3.40;99.90;;;;;;5015584;28;20215;-64
2021/04/10 05:03:56;;;;;;;8.88;1.30;;;3.50;99.90;;;;;;5012786;28;20037;-65
2021/04/10 05:06:22;;;;;;;7.40;1.20;;;3.50;99.90;;;;;;5014553;28;20046;-65
2021/04/10 05:08:48;;;;;;;8.88;1.30;;;3.60;99.90;;;;;;5013452;28;20554;-65
2021/04/10 05:11:14;;;;;;;5.50;1.20;;;3.60;99.90;;;;;;5014148;28;20058;-65
2021/04/10 05:13:40;;;;;;;9.60;1.80;;;3.60;99.90;;;;;;5011096;28;20075;-65
2021/04/10 05:16:06;;;;;;;10.30;1.08;;;3.60;99.90;;;;;;5012867;28;20558;-66
2021/04/10 05:18:32;;;;;;;7.88;1.58;;;3.60;99.90;;;;;;5010431;28;20025;-64
2021/04/10 05:20:58;;;;;;;11.30;1.40;;;3.60;99.90;;;;;;5009320;28;20159;-65
2021/04/10 05:23:24;;;;;;;27.08;4.03;;;3.60;99.90;;;;;;5014068;28;20033;-65
2021/04/10 05:25:51;;;;;;;10.35;1.40;;;3.70;99.90;;;;;;5011239;28;20060;-65
2021/04/10 05:28:18;;;;;;;11.32;1.80;;;3.70;99.90;;;;;;5013544;28;20075;-65
2021/04/10 05:30:44;;;;;;;11.70;1.98;;;3.70;99.90;;;;;;5009635;28;20386;-65
2021/04/10 05:33:10;;;;;;;6.47;1.23;;;3.70;99.90;;;;;;5003396;28;20103;-66
2021/04/10 05:35:36;;;;;;;10.75;1.35;;;3.70;99.90;;;;;;4997519;28;20030;-65
2021/04/10 05:38:03;;;;;;;12.93;1.45;;;3.70;99.90;;;;;;5013442;28;20492;-65
2021/04/10 05:40:29;;;;;;;5.85;0.80;;;3.60;99.90;;;;;;5014183;28;20036;-66
2021/04/10 05:42:54;;;;;;;8.15;2.42;;;3.60;99.90;;;;;;5017065;28;20038;-65
2021/04/10 05:45:21;;;;;;;7.63;2.17;;;3.60;99.90;;;;;;5011587;28;20034;-64
2021/04/10 05:47:46;;;;;;;5.65;1.77;;;3.60;99.90;;;;;;5015403;28;20362;-65
2021/04/10 05:50:12;;;;;;;6.97;1.67;;;3.60;99.90;;;;;;5015710;28;20444;-65
2021/04/10 05:52:38;;;;;;;8.85;1.55;;;3.60;99.90;;;;;;5012984;28;20539;-64
2021/04/10 05:55:06;;;;;;;9.90;1.58;;;3.60;99.90;;;;;;5014940;28;20021;-66
2021/04/10 05:57:33;;;;;;;5.18;1.58;;;3.60;99.90;;;;;;5013069;28;20045;-66
2021/04/10 05:59:58;;;;;;;10.60;2.10;;;3.70;99.90;;;;;;5016051;28;20429;-66
2021/04/10 06:02:24;;;;;;;8.77;1.40;;;3.80;99.90;;;;;;5013720;28;20096;-66
2021/04/10 06:04:51;;;;;;;4.63;1.85;;;4.00;99.90;;;;;;5015754;28;20120;-65
2021/04/10 06:07:17;;;;;;;9.52;1.77;;;4.10;99.90;;;;;;5017425;28;20030;-66
2021/04/10 06:09:43;;;;;;;16.55;2.90;;;4.20;99.90;;;;;;5018633;28;20064;-66
2021/04/10 06:12:09;;;;;;;9.98;2.30;;;4.40;99.90;;;;;;5014092;28;20163;-66
2021/04/10 06:14:35;;;;;;;17.27;6.60;;;4.60;99.90;;;;;;5016250;28;20781;-66
2021/04/10 06:17:01;;;;;;;42.42;20.90;;;4.60;99.90;;;;;;5014560;28;20040;-66
2021/04/10 06:19:27;;;;;;;65.32;28.42;;;4.60;99.90;;;;;;5012804;28;20036;-67
2021/04/10 06:21:53;;;;;;;180.85;75.78;;;4.60;99.90;;;;;;5014189;28;20829;-67
2021/04/10 06:24:19;;;;;;;30.23;15.32;;;4.60;99.90;;;;;;5018241;28;20034;-67
2021/04/10 06:26:45;;;;;;;55.58;28.00;;;4.50;99.90;;;;;;5017277;28;20314;-66
2021/04/10 06:29:12;;;;;;;31.45;17.15;;;4.50;99.90;;;;;;5008653;28;20603;-67
2021/04/10 06:31:39;;;;;;;25.08;10.80;;;4.60;99.90;;;;;;5004596;28;20693;-67
2021/04/10 06:34:05;;;;;;;19.60;6.13;;;4.80;99.90;;;;;;5003731;28;20026;-66
2021/04/10 06:36:30;;;;;;;14.80;4.63;;;5.00;99.90;;;;;;5002925;28;20045;-67
2021/04/10 06:38:56;;;;;;;17.95;3.78;;;5.20;99.90;;;;;;4999958;28;20850;-71
2021/04/10 06:41:23;;;;;;;9.85;3.10;;;5.40;99.90;;;;;;5007458;28;20041;-67
2021/04/10 06:43:49;;;;;;;16.27;3.55;;;5.50;99.90;;;;;;5008500;28;20032;-66
2021/04/10 06:46:15;;;;;;;16.23;2.80;;;5.60;99.90;;;;;;5000838;28;20033;-66
2021/04/10 06:48:43;;;;;;;11.50;4.53;;;5.80;99.90;;;;;;5008021;28;20025;-68
2021/04/10 06:51:12;;;;;;;15.35;3.08;;;6.00;99.90;;;;;;5014349;28;20120;-67
2021/04/10 06:53:46;;;;;;;12.80;1.95;;;6.00;99.90;;;;;;5015060;28;20488;-67
2021/04/10 06:56:23;;;;;;;12.43;2.15;;;6.10;99.90;;;;;;5001569;28;20041;-66
2021/04/10 06:58:55;;;;;;;6.63;1.67;;;6.30;99.90;;;;;;5004068;28;20037;-66
2021/04/10 07:01:20;;;;;;;12.18;2.90;;;6.40;99.90;;;;;;5000918;28;20109;-66
2021/04/10 07:03:50;;;;;;;17.13;2.95;;;6.40;99.90;;;;;;4994658;28;20029;-65
2021/04/10 07:06:17;;;;;;;10.20;2.40;;;6.20;99.90;;;;;;4997717;28;20022;-64
2021/04/10 07:08:44;;;;;;;17.05;3.72;;;6.20;99.90;;;;;;5005202;28;20125;-65
2021/04/10 07:11:11;;;;;;;11.88;2.45;;;6.40;99.90;;;;;;5001807;28;20026;-66
2021/04/10 07:13:37;;;;;;;5.57;1.20;;;6.70;99.90;;;;;;5009043;28;20036;-67
2021/04/10 07:16:03;;;;;;;8.32;1.73;;;6.60;99.90;;;;;;5011235;28;20021;-67
2021/04/10 07:18:30;;;;;;;10.18;1.65;;;6.30;99.90;;;;;;5013060;28;20033;-67
2021/04/10 07:21:22;;;;;;;14.65;2.40;;;6.30;99.90;;;;;;5009602;28;20054;-68
2021/04/10 07:23:52;;;;;;;12.90;3.25;;;6.70;99.90;;;;;;5017867;28;20738;-69
2021/04/10 07:26:20;;;;;;;5.75;1.20;;;6.90;99.90;;;;;;5015839;28;20103;-67
2021/04/10 07:28:47;;;;;;;10.23;1.83;;;7.00;99.90;;;;;;5007048;28;20036;-67
2021/04/10 07:31:15;;;;;;;12.63;1.70;;;7.10;99.90;;;;;;5006747;28;20382;-68
2021/04/10 07:33:44;;;;;;;11.55;2.42;;;7.30;99.90;;;;;;5006944;28;20026;-67
2021/04/10 07:36:16;;;;;;;6.55;1.42;;;7.40;99.90;;;;;;5009300;28;20051;-70
2021/04/10 07:38:43;;;;;;;8.75;1.27;;;7.70;99.90;;;;;;5014584;28;20103;-69
2021/04/10 07:41:12;;;;;;;6.90;2.00;;;7.60;99.90;;;;;;5010229;28;20026;-68
2021/04/10 07:43:39;;;;;;;7.55;1.20;;;7.50;99.90;;;;;;5010727;28;20040;-69
2021/04/10 07:46:12;;;;;;;10.50;1.38;;;7.70;99.90;;;;;;5007283;28;20484;-69
2021/04/10 07:48:39;;;;;;;12.77;1.55;;;8.00;99.90;;;;;;5007930;28;20026;-68
2021/04/10 07:51:14;;;;;;;6.35;1.83;;;7.90;99.90;;;;;;5005458;28;20294;-68
2021/04/10 07:53:40;;;;;;;13.20;2.08;;;7.70;99.90;;;;;;5006511;28;20025;-68
2021/04/10 07:56:08;;;;;;;9.80;1.63;;;7.60;99.90;;;;;;5001153;28;20140;-68
2021/04/10 07:58:36;;;;;;;8.15;1.40;;;7.60;99.90;;;;;;5011736;28;20037;-68
2021/04/10 08:01:09;;;;;;;6.95;2.00;;;7.70;99.90;;;;;;5007656;28;20146;-68
2021/04/10 08:03:39;;;;;;;10.68;1.40;;;7.80;99.90;;;;;;5013884;28;20021;-68
2021/04/10 08:06:05;;;;;;;10.90;1.63;;;8.20;99.90;;;;;;5012709;28;20796;-68
2021/04/10 08:08:46;;;;;;;8.55;1.58;;;8.20;99.90;;;;;;5016040;28;20114;-69
2021/04/10 08:11:13;;;;;;;6.03;1.23;;;8.60;99.90;;;;;;5010437;28;20559;-67
2021/04/10 08:13:53;;;;;;;8.93;1.45;;;9.00;99.90;;;;;;5007320;28;20431;-68
2021/04/10 08:16:20;;;;;;;9.10;1.40;;;9.00;99.90;;;;;;5008196;28;20042;-69
2021/04/10 08:18:50;;;;;;;13.88;2.28;;;8.60;99.90;;;;;;5005581;28;20033;-68
2021/04/10 08:21:18;;;;;;;6.63;1.75;;;8.70;99.90;;;;;;5008944;28;20059;-68
2021/04/10 08:23:44;;;;;;;12.27;1.48;;;9.20;99.90;;;;;;5014321;28;20049;-68
2021/04/10 08:26:10;;;;;;;3.67;1.10;;;9.20;99.90;;;;;;5007337;28;20026;-68
2021/04/10 08:28:36;;;;;;;8.82;1.88;;;8.90;99.90;;;;;;5001134;28;20457;-68
2021/04/10 08:31:04;;;;;;;9.05;1.60;;;8.90;99.90;;;;;;5003179;28;20029;-68
2021/04/10 08:33:31;;;;;;;8.90;1.40;;;9.20;99.90;;;;;;5011373;28;20033;-68
2021/04/10 08:35:59;;;;;;;9.10;1.35;;;9.20;99.90;;;;;;5011073;28;20591;-69
2021/04/10 08:38:28;;;;;;;7.38;1.83;;;9.40;99.90;;;;;;5012774;28;20064;-68
2021/04/10 08:40:56;;;;;;;10.73;1.60;;;9.30;99.90;;;;;;5005713;28;20056;-68
2021/04/10 08:43:27;;;;;;;7.85;1.17;;;9.20;99.90;;;;;;5007364;28;20507;-68
2021/04/10 08:45:54;;;;;;;9.48;1.50;;;9.20;99.90;;;;;;5006165;28;20063;-68
2021/04/10 08:48:22;;;;;;;8.23;2.42;;;9.30;99.90;;;;;;5002615;28;20730;-68
2021/04/10 08:50:51;;;;;;;10.93;1.52;;;9.50;99.90;;;;;;5009575;28;20029;-69
2021/04/10 08:53:28;;;;;;;6.50;1.65;;;9.80;99.90;;;;;;5012852;28;20041;-68
2021/04/10 08:55:55;;;;;;;8.23;1.80;;;9.80;99.90;;;;;;5013381;28;20121;-68
2021/04/10 08:58:28;;;;;;;9.93;1.75;;;9.70;99.90;;;;;;5010603;28;20142;-68
2021/04/10 09:00:59;;;;;;;9.43;1.70;;;9.70;99.90;;;;;;5007733;28;20037;-67
2021/04/10 09:03:50;;;;;;;10.40;1.48;;;9.50;99.90;;;;;;5012779;28;20446;-67
2021/04/10 09:06:16;;;;;;;5.00;1.48;;;9.10;99.90;;;;;;5012647;28;20138;-67
2021/04/10 09:08:42;;;;;;;9.18;1.20;;;9.10;99.90;;;;;;5012752;28;20478;-67
2021/04/10 09:11:08;;;;;;;6.28;1.20;;;8.80;99.90;;;;;;5011739;28;20056;-67
2021/04/10 09:13:47;;;;;;;6.93;1.85;;;8.80;99.90;;;;;;5012693;28;20045;-66
2021/04/10 09:16:43;;;;;;;10.85;1.90;;;8.70;99.90;;;;;;5004622;28;20063;-67
2021/04/10 09:19:17;;;;;;;6.63;1.38;;;8.80;99.90;;;;;;5012649;28;20411;-67
2021/04/10 09:21:45;;;;;;;5.43;1.20;;;8.90;99.90;;;;;;5011503;28;20140;-67
2021/04/10 09:24:21;;;;;;;5.88;1.40;;;8.60;99.90;;;;;;5014055;28;20029;-66
2021/04/10 09:27:08;;;;;;;10.63;1.48;;;8.40;99.90;;;;;;4998411;28;20057;-66
2021/04/10 09:29:37;;;;;;;4.90;1.40;;;8.80;99.90;;;;;;5012736;28;20056;-66
2021/04/10 09:32:03;;;;;;;5.18;1.55;;;9.50;99.90;;;;;;5012967;28;20045;-66
2021/04/10 09:34:49;;;;;;;6.25;2.03;;;9.40;99.90;;;;;;5014133;28;20119;-67
2021/04/10 09:37:24;;;;;;;15.25;2.35;;;9.60;99.90;;;;;;5011839;28;20492;-66
2021/04/10 09:40:04;;;;;;;10.07;1.92;;;10.20;99.90;;;;;;5014009;28;20044;-67
2021/04/10 09:42:44;;;;;;;8.00;1.23;;;10.80;99.90;;;;;;5010733;28;20053;-67
2021/04/10 09:45:16;;;;;;;;;;;11.20;99.90;;;;;;5002588;28;20098;-66
2021/04/10 09:47:57;;;;;;;6.07;1.38;;;11.70;99.90;;;;;;5003957;28;21719;-69
2021/04/10 09:50:24;;;;;;;5.97;1.38;;;11.60;99.90;;;;;;5011281;28;20027;-68
2021/04/10 09:53:02;;;;;;;7.38;1.58;;;11.40;99.90;;;;;;5007757;28;20068;-69
2021/04/10 09:55:31;;;;;;;9.80;1.60;;;11.00;99.90;;;;;;5013094;28;20549;-68
2021/04/10 09:58:05;;;;;;;7.95;1.50;;;10.60;99.90;;;;;;5011205;28;20038;-68
2021/04/10 10:00:42;;;;;;;7.68;1.50;;;10.60;99.90;;;;;;5005607;28;20025;-67
2021/04/10 10:03:09;;;;;;;6.35;1.17;;;11.10;99.90;;;;;;4997823;28;20121;-68
2021/04/10 10:05:41;;;;;;;6.43;1.33;;;11.30;99.90;;;;;;5014150;28;20458;-69
2021/04/10 10:08:15;;;;;;;7.85;1.17;;;11.50;99.90;;;;;;5011544;28;20069;-69
2021/04/10 10:10:43;;;;;;;9.23;1.23;;;11.40;99.90;;;;;;5012322;28;20403;-68
2021/04/10 10:13:11;;;;;;;9.15;2.00;;;11.20;99.90;;;;;;5016830;28;20033;-67
2021/04/10 10:15:38;;;;;;;8.32;1.83;;;11.80;99.90;;;;;;5008191;28;20021;-67
2021/04/10 10:18:26;;;;;;;10.90;1.65;;;12.10;99.90;;;;;;5017638;28;20041;-67
2021/04/10 10:21:02;;;;;;;9.82;1.38;;;12.40;99.90;;;;;;5013355;28;20494;-66
2021/04/10 10:23:29;;;;;;;7.82;1.45;;;12.30;99.70;;;;;;5012006;28;20147;-67
2021/04/10 10:26:06;;;;;;;6.22;1.48;;;12.50;99.50;;;;;;5016177;28;20890;-68
2021/04/10 10:28:33;;;;;;;4.70;1.48;;;12.40;99.90;;;;;;5012840;28;20323;-67
2021/04/10 10:31:13;;;;;;;8.77;1.70;;;11.70;99.90;;;;;;5012110;28;20029;-67
2021/04/10 10:33:40;;;;;;;10.65;1.30;;;11.20;99.90;;;;;;5012625;28;20033;-67
2021/04/10 10:36:07;;;;;;;5.22;1.42;;;10.70;99.90;;;;;;5020313;28;20057;-67
2021/04/10 10:38:39;;;;;;;13.73;2.47;;;10.20;99.90;;;;;;5004089;28;20400;-67
2021/04/10 10:41:08;;;;;;;12.27;2.28;;;10.40;99.90;;;;;;5007592;28;20033;-67
2021/04/10 10:43:34;;;;;;;9.27;1.95;;;10.90;99.90;;;;;;5012427;28;20578;-66
2021/04/10 10:46:02;;;;;;;7.40;1.60;;;11.00;99.90;;;;;;5017847;28;20400;-65
2021/04/10 10:48:35;;;;;;;7.88;1.52;;;11.30;99.90;;;;;;5011006;28;20120;-65
2021/04/10 10:51:02;;;;;;;5.93;1.77;;;11.70;99.90;;;;;;5012690;28;20033;-65
2021/04/10 10:53:37;;;;;;;7.28;1.20;;;12.30;99.90;;;;;;5012063;28;20424;-69
2021/04/10 10:56:27;;;;;;;9.25;1.38;;;12.40;99.90;;;;;;5017846;28;20044;-66
2021/04/10 10:58:57;;;;;;;13.55;2.13;;;12.20;99.90;;;;;;5012276;28;20164;-66
2021/04/10 11:01:24;;;;;;;8.15;1.55;;;11.70;99.90;;;;;;5010926;28;22114;-66
2021/04/10 11:03:51;;;;;;;5.25;1.23;;;11.80;99.90;;;;;;5011751;28;20041;-66
2021/04/10 11:06:22;;;;;;;9.02;1.50;;;11.60;99.90;;;;;;5008647;28;20103;-66
2021/04/10 11:08:49;;;;;;;4.00;1.70;;;11.70;99.90;;;;;;5009674;28;20079;-65
2021/04/10 11:11:16;;;;;;;6.32;1.20;;;11.60;99.90;;;;;;5013561;28;20030;-66
2021/04/10 11:13:44;;;;;;;5.25;1.73;;;11.60;99.90;;;;;;5012189;28;20103;-65
2021/04/10 11:16:11;;;;;;;5.13;1.15;;;11.90;99.80;;;;;;5014278;28;20072;-66
2021/04/10 11:18:38;;;;;;;5.63;0.90;;;12.30;99.90;;;;;;5017232;28;20025;-66
2021/04/10 11:21:27;;;;;;;6.93;1.42;;;12.60;99.90;;;;;;5008552;28;20332;-66
2021/04/10 11:23:56;;;;;;;3.45;1.00;;;12.60;99.50;;;;;;5013028;28;20105;-66
2021/04/10 11:26:44;;;;;;;8.23;1.10;;;11.80;98.50;;;;;;5016574;28;20034;-65
2021/04/10 11:29:23;;;;;;;6.00;1.38;;;11.80;97.00;;;;;;5006654;28;20033;-66
2021/04/10 11:32:33;;;;;;;8.77;1.08;;;12.30;97.60;;;;;;5009443;28;20029;-66
2021/04/10 11:35:02;;;;;;;5.97;1.33;;;12.00;99.90;;;;;;5015501;28;20056;-65
2021/04/10 11:37:28;;;;;;;4.43;1.07;;;12.30;97.80;;;;;;5012204;28;20048;-65
2021/04/10 11:39:55;;;;;;;8.10;1.25;;;12.60;98.40;;;;;;5018820;28;20030;-66
2021/04/10 11:42:31;;;;;;;5.10;1.02;;;13.00;98.90;;;;;;5007734;28;20497;-66
2021/04/10 11:45:05;;;;;;;5.40;1.17;;;12.80;97.30;;;;;;5001918;28;20083;-67
2021/04/10 11:47:34;;;;;;;7.50;1.33;;;11.70;97.50;;;;;;5006314;28;20029;-67
2021/04/10 11:50:22;;;;;;;4.35;0.88;;;11.70;99.90;;;;;;5007925;28;20029;-67
2021/04/10 11:52:49;;;;;;;5.60;1.48;;;11.90;99.90;;;;;;5008295;28;20029;-67
2021/04/10 11:55:17;;;;;;;6.82;1.13;;;11.80;99.90;;;;;;5013620;28;20119;-67
2021/04/10 11:57:45;;;;;;;6.03;1.23;;;11.60;99.90;;;;;;5007434;28;20128;-67
2021/04/10 12:00:14;;;;;;;7.28;1.40;;;11.70;99.90;;;;;;5014883;28;20107;-67
2021/04/10 12:02:44;;;;;;;6.80;1.60;;;11.50;99.20;;;;;;5006095;28;20033;-68
2021/04/10 12:05:21;;;;;;;3.90;1.00;;;11.70;99.90;;;;;;5014095;28;20385;-68
2021/04/10 12:08:06;;;;;;;5.32;1.08;;;11.80;97.00;;;;;;5003184;28;20543;-67
2021/04/10 12:10:33;;;;;;;4.93;0.88;;;11.20;98.20;;;;;;5011519;28;20065;-68
2021/04/10 12:12:59;;;;;;;4.80;0.80;;;11.20;99.90;;;;;;5013293;28;20033;-68
2021/04/10 12:15:30;;;;;;;7.47;1.20;;;11.70;99.90;;;;;;5018979;28;20743;-68
2021/04/10 12:17:55;;;;;;;7.35;1.10;;;12.10;97.40;;;;;;5012726;28;20041;-68
2021/04/10 12:20:22;;;;;;;5.05;0.93;;;12.20;98.40;;;;;;5012094;28;20049;-68
2021/04/10 12:22:49;;;;;;;4.07;1.20;;;12.60;99.90;;;;;;5010168;28;20144;-68
2021/04/10 12:25:15;;;;;;;8.80;1.45;;;13.00;99.50;;;;;;5010586;28;20928;-68
2021/04/10 12:27:41;;;;;;;5.28;1.00;;;13.20;99.90;;;;;;5012288;28;20082;-68
2021/04/10 12:30:08;;;;;;;5.13;1.60;;;13.10;96.80;;;;;;5010879;28;20120;-68
2021/04/10 12:32:34;;;;;;;4.95;1.52;;;12.90;95.60;;;;;;5007759;28;20033;-68
2021/04/10 12:35:00;;;;;;;4.25;1.08;;;12.40;98.70;;;;;;5006941;28;20025;-68
2021/04/10 12:37:26;;;;;;;4.07;1.10;;;12.10;98.50;;;;;;5022297;28;20037;-67
2021/04/10 12:39:52;;;;;;;6.00;1.30;;;12.00;99.00;;;;;;5009738;28;20480;-67
2021/04/10 12:42:18;;;;;;;5.88;1.40;;;11.80;99.60;;;;;;5007303;28;20033;-66
2021/04/10 12:44:44;;;;;;;6.47;1.60;;;12.00;99.90;;;;;;5011336;28;20037;-67
2021/04/10 12:47:17;;;;;;;6.25;1.38;;;12.40;99.90;;;;;;5012721;28;20033;-67
2021/04/10 12:49:44;;;;;;;8.43;1.38;;;12.70;99.40;;;;;;5014166;28;20026;-67
2021/04/10 12:52:10;;;;;;;5.95;1.33;;;12.70;97.80;;;;;;5009549;28;20033;-69
2021/04/10 12:54:36;;;;;;;5.82;1.40;;;12.60;99.30;;;;;;5008864;28;20052;-68
2021/04/10 12:57:04;;;;;;;6.70;1.10;;;12.70;97.70;;;;;;5005813;28;20683;-68
2021/04/10 12:59:29;;;;;;;8.15;1.65;;;12.60;95.60;;;;;;5006924;28;20030;-68
2021/04/10 13:01:57;;;;;;;7.65;1.25;;;12.40;96.70;;;;;;5007348;28;20057;-69